sensor_id;sensor_type;location;lat;lon;timestamp;P1;durP1;ratioP1;P2;durP2;ratioP2
56413;SDS011;42318;48.452;19.526;2023-03-13T00:01:49;3.42;;;1.90;;
56413;SDS011;42318;48.452;19.526;2023-03-13T00:09:20;2.42;;;1.50;;
56413;SDS011;42318;48.452;19.526;2023-03-13T00:16:52;4.80;;;1.97;;
56413;SDS011;42318;48.452;19.526;2023-03-13T00:24:23;2.35;;;1.40;;
56413;SDS011;42318;48.452;19.526;2023-03-13T00:31:54;2.88;;;1.52;;
56413;SDS011;42318;48.452;19.526;2023-03-13T00:39:25;2.83;;;1.40;;
56413;SDS011;42318;48.452;19.526;2023-03-13T00:46:55;3.88;;;1.88;;
56413;SDS011;42318;48.452;19.526;2023-03-13T00:54:26;2.97;;;1.52;;
56413;SDS011;42318;48.452;19.526;2023-03-13T01:01:57;2.88;;;1.60;;
56413;SDS011;42318;48.452;19.526;2023-03-13T01:09:28;4.20;;;1.73;;
56413;SDS011;42318;48.452;19.526;2023-03-13T01:16:58;3.10;;;1.67;;
56413;SDS011;42318;48.452;19.526;2023-03-13T01:24:29;3.20;;;1.70;;
56413;SDS011;42318;48.452;19.526;2023-03-13T01:32:00;2.88;;;1.55;;
56413;SDS011;42318;48.452;19.526;2023-03-13T01:39:31;2.85;;;1.50;;
56413;SDS011;42318;48.452;19.526;2023-03-13T01:47:01;2.65;;;1.60;;
56413;SDS011;42318;48.452;19.526;2023-03-13T01:54:40;3.22;;;1.70;;
56413;SDS011;42318;48.452;19.526;2023-03-13T02:02:16;3.17;;;1.75;;
56413;SDS011;42318;48.452;19.526;2023-03-13T02:09:48;3.88;;;2.10;;
56413;SDS011;42318;48.452;19.526;2023-03-13T02:17:22;3.78;;;1.70;;
56413;SDS011;42318;48.452;19.526;2023-03-13T02:32:28;3.88;;;1.95;;
56413;SDS011;42318;48.452;19.526;2023-03-13T02:40:00;3.10;;;1.40;;
56413;SDS011;42318;48.452;19.526;2023-03-13T02:47:35;2.70;;;1.50;;
56413;SDS011;42318;48.452;19.526;2023-03-13T02:55:10;3.28;;;1.50;;
56413;SDS011;42318;48.452;19.526;2023-03-13T03:02:47;2.47;;;1.77;;
56413;SDS011;42318;48.452;19.526;2023-03-13T03:10:18;3.08;;;1.70;;
56413;SDS011;42318;48.452;19.526;2023-03-13T03:17:49;2.50;;;1.45;;
56413;SDS011;42318;48.452;19.526;2023-03-13T03:25:20;2.42;;;1.52;;
56413;SDS011;42318;48.452;19.526;2023-03-13T03:32:50;4.30;;;2.13;;
56413;SDS011;42318;48.452;19.526;2023-03-13T03:40:21;3.20;;;1.90;;
56413;SDS011;42318;48.452;19.526;2023-03-13T03:47:52;3.53;;;1.98;;
56413;SDS011;42318;48.452;19.526;2023-03-13T03:55:23;4.35;;;2.10;;
56413;SDS011;42318;48.452;19.526;2023-03-13T04:02:53;3.50;;;2.17;;
56413;SDS011;42318;48.452;19.526;2023-03-13T04:10:25;2.97;;;2.00;;
56413;SDS011;42318;48.452;19.526;2023-03-13T04:17:56;3.45;;;1.77;;
56413;SDS011;42318;48.452;19.526;2023-03-13T04:25:27;4.88;;;2.10;;
56413;SDS011;42318;48.452;19.526;2023-03-13T04:32:58;3.70;;;2.05;;
56413;SDS011;42318;48.452;19.526;2023-03-13T04:40:28;2.97;;;2.00;;
56413;SDS011;42318;48.452;19.526;2023-03-13T04:47:59;3.33;;;2.00;;
56413;SDS011;42318;48.452;19.526;2023-03-13T04:55:30;3.22;;;1.83;;
56413;SDS011;42318;48.452;19.526;2023-03-13T05:03:01;3.35;;;2.22;;
56413;SDS011;42318;48.452;19.526;2023-03-13T05:10:31;3.47;;;1.77;;
56413;SDS011;42318;48.452;19.526;2023-03-13T05:18:02;3.25;;;2.15;;
56413;SDS011;42318;48.452;19.526;2023-03-13T05:25:33;3.97;;;2.20;;
56413;SDS011;42318;48.452;19.526;2023-03-13T05:33:04;2.83;;;1.92;;
56413;SDS011;42318;48.452;19.526;2023-03-13T05:40:34;3.85;;;1.88;;
56413;SDS011;42318;48.452;19.526;2023-03-13T05:48:05;3.92;;;2.60;;
56413;SDS011;42318;48.452;19.526;2023-03-13T05:55:36;3.38;;;1.92;;
56413;SDS011;42318;48.452;19.526;2023-03-13T06:03:07;3.65;;;2.00;;
56413;SDS011;42318;48.452;19.526;2023-03-13T06:10:38;3.10;;;2.00;;
56413;SDS011;42318;48.452;19.526;2023-03-13T06:18:08;4.15;;;2.30;;
56413;SDS011;42318;48.452;19.526;2023-03-13T06:25:39;3.10;;;1.95;;
56413;SDS011;42318;48.452;19.526;2023-03-13T06:33:10;3.45;;;2.25;;
56413;SDS011;42318;48.452;19.526;2023-03-13T06:40:41;3.05;;;1.95;;
56413;SDS011;42318;48.452;19.526;2023-03-13T06:48:11;2.70;;;1.80;;
56413;SDS011;42318;48.452;19.526;2023-03-13T06:55:43;3.20;;;2.00;;
56413;SDS011;42318;48.452;19.526;2023-03-13T07:03:14;4.10;;;2.35;;
56413;SDS011;42318;48.452;19.526;2023-03-13T07:10:45;3.58;;;2.35;;
56413;SDS011;42318;48.452;19.526;2023-03-13T07:18:18;3.95;;;2.42;;
56413;SDS011;42318;48.452;19.526;2023-03-13T07:25:59;3.60;;;2.10;;
56413;SDS011;42318;48.452;19.526;2023-03-13T07:33:32;4.28;;;2.45;;
56413;SDS011;42318;48.452;19.526;2023-03-13T07:41:03;4.03;;;2.22;;
56413;SDS011;42318;48.452;19.526;2023-03-13T07:48:38;4.17;;;2.57;;
56413;SDS011;42318;48.452;19.526;2023-03-13T07:56:11;3.40;;;2.25;;
56413;SDS011;42318;48.452;19.526;2023-03-13T08:03:44;3.78;;;2.80;;
56413;SDS011;42318;48.452;19.526;2023-03-13T08:11:19;4.00;;;2.30;;
56413;SDS011;42318;48.452;19.526;2023-03-13T08:18:53;4.03;;;2.53;;
56413;SDS011;42318;48.452;19.526;2023-03-13T08:26:26;5.00;;;2.60;;
56413;SDS011;42318;48.452;19.526;2023-03-13T08:33:58;3.90;;;2.45;;
56413;SDS011;42318;48.452;19.526;2023-03-13T08:41:31;4.20;;;2.72;;
56413;SDS011;42318;48.452;19.526;2023-03-13T08:49:06;4.65;;;2.35;;
56413;SDS011;42318;48.452;19.526;2023-03-13T08:56:37;4.00;;;2.50;;
56413;SDS011;42318;48.452;19.526;2023-03-13T09:04:08;4.10;;;2.30;;
56413;SDS011;42318;48.452;19.526;2023-03-13T09:11:39;4.32;;;2.50;;
56413;SDS011;42318;48.452;19.526;2023-03-13T09:19:09;3.78;;;2.22;;
56413;SDS011;42318;48.452;19.526;2023-03-13T09:26:40;3.80;;;2.63;;
56413;SDS011;42318;48.452;19.526;2023-03-13T09:34:11;4.93;;;2.38;;
56413;SDS011;42318;48.452;19.526;2023-03-13T09:41:44;4.22;;;2.33;;
56413;SDS011;42318;48.452;19.526;2023-03-13T09:49:41;3.80;;;2.30;;
56413;SDS011;42318;48.452;19.526;2023-03-13T09:57:33;4.82;;;2.25;;
56413;SDS011;42318;48.452;19.526;2023-03-13T10:12:55;3.55;;;2.15;;
56413;SDS011;42318;48.452;19.526;2023-03-13T10:20:32;4.13;;;2.25;;
56413;SDS011;42318;48.452;19.526;2023-03-13T10:28:05;3.63;;;2.20;;
56413;SDS011;42318;48.452;19.526;2023-03-13T10:35:40;3.70;;;2.20;;
56413;SDS011;42318;48.452;19.526;2023-03-13T10:43:14;3.50;;;2.27;;
56413;SDS011;42318;48.452;19.526;2023-03-13T10:50:49;4.10;;;2.30;;
56413;SDS011;42318;48.452;19.526;2023-03-13T11:06:29;4.53;;;2.00;;
56413;SDS011;42318;48.452;19.526;2023-03-13T11:14:14;3.22;;;2.00;;
56413;SDS011;42318;48.452;19.526;2023-03-13T11:37:32;3.13;;;2.00;;
56413;SDS011;42318;48.452;19.526;2023-03-13T11:52:55;3.63;;;2.45;;
56413;SDS011;42318;48.452;19.526;2023-03-13T12:08:11;5.00;;;2.47;;
56413;SDS011;42318;48.452;19.526;2023-03-13T12:15:49;3.03;;;2.25;;
56413;SDS011;42318;48.452;19.526;2023-03-13T12:23:39;3.42;;;2.00;;
56413;SDS011;42318;48.452;19.526;2023-03-13T12:31:16;3.40;;;2.20;;
56413;SDS011;42318;48.452;19.526;2023-03-13T12:46:45;5.05;;;2.30;;
56413;SDS011;42318;48.452;19.526;2023-03-13T13:02:01;3.67;;;2.00;;
56413;SDS011;42318;48.452;19.526;2023-03-13T13:17:54;2.97;;;2.08;;
56413;SDS011;42318;48.452;19.526;2023-03-13T13:25:30;2.97;;;1.98;;
56413;SDS011;42318;48.452;19.526;2023-03-13T13:48:38;3.88;;;1.92;;
56413;SDS011;42318;48.452;19.526;2023-03-13T14:04:10;2.72;;;2.05;;
56413;SDS011;42318;48.452;19.526;2023-03-13T14:11:46;5.20;;;2.33;;
56413;SDS011;42318;48.452;19.526;2023-03-13T14:27:17;3.70;;;2.30;;
56413;SDS011;42318;48.452;19.526;2023-03-13T14:34:49;3.13;;;2.10;;
56413;SDS011;42318;48.452;19.526;2023-03-13T14:42:20;2.90;;;1.98;;
56413;SDS011;42318;48.452;19.526;2023-03-13T14:49:58;3.75;;;1.90;;
56413;SDS011;42318;48.452;19.526;2023-03-13T14:57:33;3.67;;;2.03;;
56413;SDS011;42318;48.452;19.526;2023-03-13T15:05:05;4.88;;;2.10;;
56413;SDS011;42318;48.452;19.526;2023-03-13T15:12:42;3.42;;;2.42;;
56413;SDS011;42318;48.452;19.526;2023-03-13T15:20:14;2.67;;;1.83;;
56413;SDS011;42318;48.452;19.526;2023-03-13T15:27:46;3.40;;;2.28;;
56413;SDS011;42318;48.452;19.526;2023-03-13T15:35:22;2.40;;;1.80;;
56413;SDS011;42318;48.452;19.526;2023-03-13T15:43:00;3.60;;;2.35;;
56413;SDS011;42318;48.452;19.526;2023-03-13T15:50:31;2.63;;;1.92;;
56413;SDS011;42318;48.452;19.526;2023-03-13T15:58:01;2.80;;;1.70;;
56413;SDS011;42318;48.452;19.526;2023-03-13T16:05:32;4.15;;;2.30;;
56413;SDS011;42318;48.452;19.526;2023-03-13T16:13:03;4.35;;;2.20;;
56413;SDS011;42318;48.452;19.526;2023-03-13T16:20:34;3.35;;;2.15;;
56413;SDS011;42318;48.452;19.526;2023-03-13T16:28:05;3.90;;;2.80;;
56413;SDS011;42318;48.452;19.526;2023-03-13T16:35:41;3.97;;;2.50;;
56413;SDS011;42318;48.452;19.526;2023-03-13T16:43:12;4.75;;;2.53;;
56413;SDS011;42318;48.452;19.526;2023-03-13T16:50:43;4.47;;;2.60;;
56413;SDS011;42318;48.452;19.526;2023-03-13T16:58:15;9.05;;;3.20;;
56413;SDS011;42318;48.452;19.526;2023-03-13T17:05:46;3.30;;;2.47;;
56413;SDS011;42318;48.452;19.526;2023-03-13T17:13:17;5.05;;;2.80;;
56413;SDS011;42318;48.452;19.526;2023-03-13T17:20:49;5.63;;;3.35;;
56413;SDS011;42318;48.452;19.526;2023-03-13T17:28:20;5.13;;;2.78;;
56413;SDS011;42318;48.452;19.526;2023-03-13T17:35:51;4.90;;;3.10;;
56413;SDS011;42318;48.452;19.526;2023-03-13T17:43:22;3.45;;;2.42;;
56413;SDS011;42318;48.452;19.526;2023-03-13T17:50:53;3.53;;;2.50;;
56413;SDS011;42318;48.452;19.526;2023-03-13T17:58:23;4.70;;;3.00;;
56413;SDS011;42318;48.452;19.526;2023-03-13T18:05:54;4.97;;;3.10;;
56413;SDS011;42318;48.452;19.526;2023-03-13T18:13:25;5.15;;;2.75;;
56413;SDS011;42318;48.452;19.526;2023-03-13T18:20:56;4.72;;;3.00;;
56413;SDS011;42318;48.452;19.526;2023-03-13T18:28:27;4.53;;;3.10;;
56413;SDS011;42318;48.452;19.526;2023-03-13T18:35:58;4.82;;;2.70;;
56413;SDS011;42318;48.452;19.526;2023-03-13T18:43:28;6.72;;;2.58;;
56413;SDS011;42318;48.452;19.526;2023-03-13T18:50:59;4.80;;;3.00;;
56413;SDS011;42318;48.452;19.526;2023-03-13T18:58:30;6.00;;;3.22;;
56413;SDS011;42318;48.452;19.526;2023-03-13T19:06:01;3.70;;;2.63;;
56413;SDS011;42318;48.452;19.526;2023-03-13T19:13:32;4.93;;;3.20;;
56413;SDS011;42318;48.452;19.526;2023-03-13T19:21:14;4.88;;;2.90;;
56413;SDS011;42318;48.452;19.526;2023-03-13T19:28:46;4.03;;;3.10;;
56413;SDS011;42318;48.452;19.526;2023-03-13T19:36:17;4.97;;;3.60;;
56413;SDS011;42318;48.452;19.526;2023-03-13T19:43:49;4.05;;;2.75;;
56413;SDS011;42318;48.452;19.526;2023-03-13T19:51:20;4.97;;;3.08;;
56413;SDS011;42318;48.452;19.526;2023-03-13T19:58:52;6.07;;;3.65;;
56413;SDS011;42318;48.452;19.526;2023-03-13T20:06:29;6.20;;;3.58;;
56413;SDS011;42318;48.452;19.526;2023-03-13T20:14:03;5.18;;;3.30;;
56413;SDS011;42318;48.452;19.526;2023-03-13T20:21:35;4.78;;;3.63;;
56413;SDS011;42318;48.452;19.526;2023-03-13T20:29:10;5.53;;;3.53;;
56413;SDS011;42318;48.452;19.526;2023-03-13T20:36:41;5.80;;;3.63;;
56413;SDS011;42318;48.452;19.526;2023-03-13T20:44:12;6.03;;;3.30;;
56413;SDS011;42318;48.452;19.526;2023-03-13T20:51:43;4.63;;;3.58;;
56413;SDS011;42318;48.452;19.526;2023-03-13T20:59:13;4.72;;;3.45;;
56413;SDS011;42318;48.452;19.526;2023-03-13T21:06:44;4.57;;;3.45;;
56413;SDS011;42318;48.452;19.526;2023-03-13T21:14:15;5.18;;;3.15;;
56413;SDS011;42318;48.452;19.526;2023-03-13T21:21:46;5.88;;;3.42;;
56413;SDS011;42318;48.452;19.526;2023-03-13T21:29:19;6.20;;;3.80;;
56413;SDS011;42318;48.452;19.526;2023-03-13T21:36:49;4.90;;;3.65;;
56413;SDS011;42318;48.452;19.526;2023-03-13T21:44:20;6.10;;;3.22;;
56413;SDS011;42318;48.452;19.526;2023-03-13T21:51:51;6.20;;;3.42;;
56413;SDS011;42318;48.452;19.526;2023-03-13T21:59:22;5.45;;;3.60;;
56413;SDS011;42318;48.452;19.526;2023-03-13T22:06:55;4.88;;;3.60;;
56413;SDS011;42318;48.452;19.526;2023-03-13T22:14:26;5.05;;;3.50;;
56413;SDS011;42318;48.452;19.526;2023-03-13T22:21:57;4.38;;;3.40;;
56413;SDS011;42318;48.452;19.526;2023-03-13T22:29:28;5.97;;;3.15;;
56413;SDS011;42318;48.452;19.526;2023-03-13T22:37:01;5.47;;;3.58;;
56413;SDS011;42318;48.452;19.526;2023-03-13T22:44:32;4.20;;;2.85;;
56413;SDS011;42318;48.452;19.526;2023-03-13T22:52:03;4.88;;;3.05;;
56413;SDS011;42318;48.452;19.526;2023-03-13T22:59:34;6.05;;;3.03;;
56413;SDS011;42318;48.452;19.526;2023-03-13T23:07:05;4.10;;;3.03;;
56413;SDS011;42318;48.452;19.526;2023-03-13T23:14:35;4.47;;;3.20;;
56413;SDS011;42318;48.452;19.526;2023-03-13T23:22:06;4.95;;;3.47;;
56413;SDS011;42318;48.452;19.526;2023-03-13T23:29:37;4.70;;;2.95;;
56413;SDS011;42318;48.452;19.526;2023-03-13T23:37:09;4.63;;;3.05;;
56413;SDS011;42318;48.452;19.526;2023-03-13T23:44:39;4.05;;;3.00;;
56413;SDS011;42318;48.452;19.526;2023-03-13T23:52:11;3.72;;;2.80;;
56413;SDS011;42318;48.452;19.526;2023-03-13T23:59:42;3.50;;;2.58;;
